createdAt,value
2022-08-14T00:01:10.015Z,6.10
2022-08-14T00:02:34.085Z,7.10
2022-08-14T00:04:00.239Z,6.22
2022-08-14T00:05:24.966Z,5.78
2022-08-14T00:06:48.882Z,6.75
2022-08-14T00:08:14.314Z,7.25
2022-08-14T00:09:56.129Z,6.47
2022-08-14T00:11:22.287Z,6.45
2022-08-14T00:12:56.456Z,5.80
2022-08-14T00:14:21.173Z,7.10
2022-08-14T00:15:48.268Z,6.90
2022-08-14T00:17:12.022Z,5.90
2022-08-14T00:19:18.240Z,6.28
2022-08-14T00:20:23.788Z,6.20
2022-08-14T00:21:46.916Z,6.10
2022-08-14T00:23:16.741Z,6.00
2022-08-14T00:24:40.194Z,6.25
2022-08-14T00:26:06.486Z,5.55
2022-08-14T00:27:30.825Z,6.32
2022-08-14T00:29:01.520Z,6.88
2022-08-14T00:30:28.335Z,5.70
2022-08-14T00:31:55.287Z,6.05
2022-08-14T00:33:19.231Z,5.78
2022-08-14T00:34:46.718Z,5.65
2022-08-14T00:36:47.101Z,5.43
2022-08-14T00:37:54.667Z,5.63
2022-08-14T00:39:19.442Z,5.97
2022-08-14T00:40:46.156Z,5.57
2022-08-14T00:42:52.386Z,5.22
2022-08-14T00:43:53.819Z,5.32
2022-08-14T00:45:19.809Z,5.40
2022-08-14T00:46:49.357Z,5.40
2022-08-14T00:48:14.067Z,4.97
2022-08-14T00:49:57.763Z,5.25
2022-08-14T00:51:21.681Z,5.75
2022-08-14T00:52:46.446Z,5.15
2022-08-14T00:54:20.930Z,4.82
2022-08-14T00:55:47.208Z,5.38
2022-08-14T00:57:10.099Z,4.93
2022-08-14T00:58:35.165Z,5.00
2022-08-14T00:59:58.931Z,5.20
2022-08-14T01:01:22.999Z,5.05
2022-08-14T01:02:47.050Z,4.82
2022-08-14T01:04:37.690Z,5.35
2022-08-14T01:06:01.198Z,5.20
2022-08-14T01:07:38.689Z,5.00
2022-08-14T01:09:12.711Z,4.82
2022-08-14T01:10:52.459Z,5.25
2022-08-14T01:12:27.280Z,4.95
2022-08-14T01:14:00.739Z,5.18
2022-08-14T01:15:31.798Z,5.70
2022-08-14T01:17:08.949Z,5.20
2022-08-14T01:18:56.207Z,5.35
2022-08-14T01:20:43.460Z,5.47
2022-08-14T01:22:08.521Z,5.32
2022-08-14T01:23:46.482Z,5.47
2022-08-14T01:25:11.032Z,5.38
2022-08-14T01:26:38.726Z,5.78
2022-08-14T01:28:02.662Z,5.72
2022-08-14T01:29:52.012Z,5.20
2022-08-14T01:31:14.556Z,5.43
2022-08-14T01:32:42.822Z,6.25
2022-08-14T01:35:20.189Z,5.90
2022-08-14T01:36:03.850Z,5.78
2022-08-14T01:37:31.385Z,5.90
2022-08-14T01:38:58.001Z,6.20
2022-08-14T01:40:25.542Z,5.82
2022-08-14T01:42:00.766Z,5.55
2022-08-14T01:43:26.472Z,6.15
2022-08-14T01:44:57.568Z,5.18
2022-08-14T01:46:24.547Z,5.70
2022-08-14T01:47:47.425Z,5.63
2022-08-14T01:49:15.265Z,4.90
2022-08-14T01:50:38.009Z,5.13
2022-08-14T01:52:02.021Z,5.57
2022-08-14T01:53:26.905Z,5.70
2022-08-14T01:54:58.226Z,5.90
2022-08-14T01:56:22.939Z,5.55
2022-08-14T01:57:49.394Z,5.97
2022-08-14T01:59:37.496Z,5.30
2022-08-14T02:01:05.185Z,5.88
2022-08-14T02:02:36.876Z,6.20
2022-08-14T02:04:01.263Z,5.82
2022-08-14T02:05:29.412Z,6.28
2022-08-14T02:06:59.074Z,5.72
2022-08-14T02:08:22.475Z,5.72
2022-08-14T02:09:59.964Z,5.35
2022-08-14T02:11:23.156Z,5.95
2022-08-14T02:12:53.933Z,6.10
2022-08-14T02:14:31.475Z,5.75
2022-08-14T02:15:55.373Z,5.47
2022-08-14T02:17:23.115Z,6.43
2022-08-14T02:18:46.211Z,6.13
2022-08-14T02:20:10.906Z,6.03
2022-08-14T02:21:39.610Z,6.07
2022-08-14T02:23:08.566Z,6.88
2022-08-14T02:24:40.006Z,5.68
2022-08-14T02:26:24.214Z,6.03
2022-08-14T02:28:23.588Z,6.43
2022-08-14T02:30:00.684Z,5.63
2022-08-14T02:31:28.402Z,5.38
2022-08-14T02:33:01.225Z,6.03
2022-08-14T02:34:29.163Z,6.25
2022-08-14T02:36:05.084Z,6.40
2022-08-14T02:37:47.203Z,5.88
2022-08-14T02:39:13.426Z,5.70
2022-08-14T02:40:37.813Z,6.20
2022-08-14T02:42:04.407Z,6.13
2022-08-14T02:43:37.138Z,5.68
2022-08-14T02:45:10.485Z,5.95
2022-08-14T02:46:33.846Z,6.93
2022-08-14T02:47:57.634Z,6.28
2022-08-14T02:49:34.001Z,6.63
2022-08-14T02:50:57.111Z,5.95
2022-08-14T02:52:56.753Z,6.18
2022-08-14T02:54:13.240Z,6.45
2022-08-14T02:55:44.521Z,6.57
2022-08-14T02:57:15.452Z,6.20
2022-08-14T02:58:42.317Z,6.38
2022-08-14T03:00:09.888Z,5.85
2022-08-14T03:01:43.279Z,6.65
2022-08-14T03:03:08.307Z,6.63
2022-08-14T03:04:32.702Z,6.20
2022-08-14T03:05:55.579Z,6.18
2022-08-14T03:07:19.637Z,6.18
2022-08-14T03:08:46.037Z,6.93
2022-08-14T03:10:27.041Z,7.07
2022-08-14T03:11:56.463Z,6.45
2022-08-14T03:13:22.110Z,6.15
2022-08-14T03:14:48.445Z,6.05
2022-08-14T03:16:26.566Z,5.88
2022-08-14T03:17:57.556Z,5.78
2022-08-14T03:19:21.861Z,5.85
2022-08-14T03:20:44.405Z,6.60
2022-08-14T03:22:17.650Z,6.80
2022-08-14T03:23:44.533Z,6.85
2022-08-14T03:25:08.258Z,6.40
2022-08-14T03:26:34.195Z,5.60
2022-08-14T03:28:02.600Z,5.80
2022-08-14T03:29:29.799Z,6.75
2022-08-14T03:30:54.855Z,6.35
2022-08-14T03:32:18.446Z,6.03
2022-08-14T03:33:51.821Z,6.75
2022-08-14T03:35:18.292Z,7.05
2022-08-14T03:39:09.294Z,6.40
2022-08-14T03:39:14.169Z,6.07
2022-08-14T03:40:18.531Z,6.95
2022-08-14T03:41:42.399Z,5.80
2022-08-14T03:43:08.018Z,6.93
2022-08-14T03:45:18.895Z,6.43
2022-08-14T03:46:52.643Z,6.72
2022-08-14T03:48:10.461Z,6.30
2022-08-14T03:49:49.769Z,6.90
2022-08-14T03:51:14.015Z,6.57
2022-08-14T03:52:47.939Z,7.15
2022-08-14T03:54:20.556Z,6.72
2022-08-14T03:55:43.417Z,6.68
2022-08-14T03:57:08.709Z,6.78
2022-08-14T03:58:34.947Z,6.72
2022-08-14T04:00:04.075Z,6.32
2022-08-14T04:01:38.933Z,6.57
2022-08-14T04:03:06.946Z,6.53
2022-08-14T04:04:30.364Z,6.20
2022-08-14T04:05:54.886Z,7.00
2022-08-14T04:07:17.468Z,6.25
2022-08-14T04:08:43.060Z,6.97
2022-08-14T04:10:07.069Z,7.18
2022-08-14T04:11:31.768Z,6.53
2022-08-14T04:12:59.363Z,6.65
2022-08-14T04:14:28.994Z,6.88
2022-08-14T04:16:01.650Z,6.60
2022-08-14T04:17:29.443Z,6.15
2022-08-14T04:18:55.964Z,6.75
2022-08-14T04:20:25.779Z,7.05
2022-08-14T04:22:02.919Z,6.15
2022-08-14T04:23:32.538Z,6.68
2022-08-14T04:24:56.614Z,6.32
2022-08-14T04:26:27.139Z,6.72
2022-08-14T04:28:03.573Z,6.53
2022-08-14T04:29:27.226Z,5.60
2022-08-14T04:30:50.711Z,6.30
2022-08-14T04:33:01.460Z,6.10
2022-08-14T04:33:59.644Z,6.60
2022-08-14T04:35:23.636Z,6.13
2022-08-14T04:37:07.472Z,6.45
2022-08-14T04:38:49.788Z,5.75
2022-08-14T04:40:31.063Z,6.28
2022-08-14T04:42:12.295Z,6.18
2022-08-14T04:43:39.460Z,6.05
2022-08-14T04:45:03.121Z,6.35
2022-08-14T04:46:55.194Z,6.15
2022-08-14T04:48:36.661Z,7.45
2022-08-14T04:49:58.526Z,6.07
2022-08-14T04:51:28.186Z,5.88
2022-08-14T04:52:53.880Z,6.45
2022-08-14T04:54:19.532Z,6.18
2022-08-14T04:55:45.077Z,6.95
2022-08-14T04:57:09.786Z,6.15
2022-08-14T04:58:35.786Z,6.35
2022-08-14T04:59:58.716Z,6.47
2022-08-14T05:01:22.430Z,5.95
2022-08-14T05:02:45.104Z,6.35
2022-08-14T05:04:14.610Z,6.18
2022-08-14T05:05:40.495Z,6.13
2022-08-14T05:07:06.510Z,7.03
2022-08-14T05:08:31.789Z,5.90
2022-08-14T05:10:16.555Z,6.85
2022-08-14T05:11:45.982Z,6.22
2022-08-14T05:13:13.124Z,6.10
2022-08-14T05:14:53.099Z,5.85
2022-08-14T05:16:17.528Z,6.68
2022-08-14T05:17:58.650Z,6.60
2022-08-14T05:19:29.451Z,6.57
2022-08-14T05:21:55.431Z,6.00
2022-08-14T05:22:40.404Z,6.10
2022-08-14T05:24:06.732Z,5.90
2022-08-14T05:25:41.157Z,6.03
2022-08-14T05:27:03.973Z,5.32
2022-08-14T05:28:30.103Z,5.88
2022-08-14T05:29:55.459Z,6.25
2022-08-14T05:31:20.637Z,5.78
2022-08-14T05:32:44.830Z,5.35
2022-08-14T05:34:11.723Z,5.07
2022-08-14T05:35:37.825Z,5.50
2022-08-14T05:37:06.826Z,5.80
2022-08-14T05:38:35.216Z,5.55
2022-08-14T05:39:59.538Z,5.30
2022-08-14T05:41:24.251Z,5.22
2022-08-14T05:43:08.069Z,5.43
2022-08-14T05:44:32.426Z,5.22
2022-08-14T05:45:56.103Z,5.45
2022-08-14T05:47:22.921Z,5.72
2022-08-14T05:48:50.043Z,4.82
2022-08-14T05:50:17.279Z,5.18
2022-08-14T05:51:46.865Z,5.53
2022-08-14T05:53:10.746Z,5.15
2022-08-14T05:54:35.498Z,4.82
2022-08-14T05:56:00.158Z,4.90
2022-08-14T05:57:22.738Z,5.57
2022-08-14T05:58:47.251Z,5.53
2022-08-14T06:00:13.450Z,5.15
2022-08-14T06:01:51.021Z,5.20
2022-08-14T06:03:17.175Z,5.05
2022-08-14T06:04:48.066Z,5.30
2022-08-14T06:06:13.050Z,4.80
2022-08-14T06:07:38.507Z,4.88
2022-08-14T06:09:02.168Z,5.35
2022-08-14T06:10:25.269Z,5.55
2022-08-14T06:11:52.040Z,4.95
2022-08-14T06:13:16.919Z,5.13
2022-08-14T06:14:40.246Z,4.55
2022-08-14T06:16:04.317Z,4.97
2022-08-14T06:17:29.592Z,4.95
2022-08-14T06:19:11.265Z,4.85
2022-08-14T06:20:41.698Z,4.63
2022-08-14T06:22:05.694Z,4.70
2022-08-14T06:23:30.629Z,4.50
2022-08-14T06:24:54.220Z,4.82
2022-08-14T06:26:20.876Z,4.80
2022-08-14T06:27:46.001Z,4.63
2022-08-14T06:29:10.340Z,5.00
2022-08-14T06:30:45.900Z,5.00
2022-08-14T06:32:38.501Z,4.95
2022-08-14T06:35:02.762Z,4.18
2022-08-14T06:35:38.149Z,4.63
2022-08-14T06:37:02.396Z,4.95
2022-08-14T06:38:26.242Z,4.68
2022-08-14T06:39:50.280Z,4.90
2022-08-14T06:41:19.151Z,5.47
2022-08-14T06:42:43.453Z,5.10
2022-08-14T06:44:10.914Z,5.10
2022-08-14T06:45:37.242Z,5.72
2022-08-14T06:47:03.341Z,5.45
2022-08-14T06:48:27.694Z,6.05
2022-08-14T06:49:57.620Z,5.40
2022-08-14T06:51:38.985Z,5.38
2022-08-14T06:53:08.608Z,5.30
2022-08-14T06:54:35.596Z,5.40
2022-08-14T06:56:02.456Z,5.28
2022-08-14T06:57:25.410Z,5.03
2022-08-14T06:58:48.921Z,5.38
2022-08-14T07:00:22.317Z,5.80
2022-08-14T07:02:13.412Z,5.32
2022-08-14T07:03:58.269Z,5.20
2022-08-14T07:05:40.188Z,5.70
2022-08-14T07:07:19.647Z,5.55
2022-08-14T07:08:44.898Z,5.10
2022-08-14T07:10:13.251Z,4.80
2022-08-14T07:11:42.329Z,4.88
2022-08-14T07:13:06.310Z,4.93
2022-08-14T07:14:30.393Z,5.00
2022-08-14T07:15:55.689Z,5.15
2022-08-14T07:17:18.229Z,4.95
2022-08-14T07:18:43.577Z,5.50
2022-08-14T07:20:08.978Z,5.85
2022-08-14T07:21:32.526Z,5.32
2022-08-14T07:23:01.438Z,5.38
2022-08-14T07:24:31.882Z,5.28
2022-08-14T07:25:58.434Z,5.45
2022-08-14T07:27:24.039Z,5.50
2022-08-14T07:28:49.929Z,5.45
2022-08-14T07:30:34.514Z,5.38
2022-08-14T07:31:56.535Z,5.50
2022-08-14T07:33:41.683Z,5.07
2022-08-14T07:35:08.592Z,5.57
2022-08-14T07:36:32.252Z,4.90
2022-08-14T07:37:56.105Z,4.95
2022-08-14T07:39:27.529Z,6.25
2022-08-14T07:40:52.994Z,5.57
2022-08-14T07:42:16.991Z,5.70
2022-08-14T07:43:55.621Z,5.63
2022-08-14T07:45:19.998Z,5.47
2022-08-14T07:46:45.968Z,6.05
2022-08-14T07:48:08.640Z,4.97
2022-08-14T07:49:38.445Z,5.45
2022-08-14T07:51:11.261Z,5.45
2022-08-14T07:52:35.029Z,5.70
2022-08-14T07:54:00.021Z,5.35
2022-08-14T07:55:23.625Z,5.78
2022-08-14T07:56:48.881Z,5.50
2022-08-14T07:58:33.962Z,5.07
2022-08-14T07:59:58.741Z,5.35
2022-08-14T08:01:24.146Z,5.68
2022-08-14T08:02:54.997Z,5.47
2022-08-14T08:04:27.125Z,5.50
2022-08-14T08:05:51.155Z,5.10
2022-08-14T08:07:15.702Z,5.15
2022-08-14T08:08:39.241Z,5.15
2022-08-14T08:10:46.781Z,5.10
2022-08-14T08:12:15.706Z,5.30
2022-08-14T08:13:48.880Z,5.80
2022-08-14T08:15:19.084Z,4.85
2022-08-14T08:16:43.562Z,5.07
2022-08-14T08:18:27.693Z,5.18
2022-08-14T08:19:53.326Z,5.05
2022-08-14T08:21:18.034Z,4.72
2022-08-14T08:22:43.496Z,4.95
2022-08-14T08:24:18.425Z,4.90
2022-08-14T08:25:44.365Z,5.15
2022-08-14T08:27:16.821Z,5.30
2022-08-14T08:28:43.953Z,5.03
2022-08-14T08:30:09.931Z,4.72
2022-08-14T08:31:36.553Z,4.88
2022-08-14T08:33:03.069Z,4.75
2022-08-14T08:34:26.700Z,4.82
2022-08-14T08:35:51.310Z,4.70
2022-08-14T08:37:15.522Z,5.00
2022-08-14T08:39:16.568Z,4.85
2022-08-14T08:40:31.288Z,5.15
2022-08-14T08:41:55.785Z,4.82
2022-08-14T08:43:20.321Z,4.53
2022-08-14T08:44:46.192Z,4.90
2022-08-14T08:46:21.125Z,4.57
2022-08-14T08:47:46.607Z,4.75
2022-08-14T08:49:10.618Z,4.95
2022-08-14T08:52:04.249Z,5.18
2022-08-14T08:53:32.901Z,4.57
2022-08-14T08:54:57.976Z,4.90
2022-08-14T08:56:30.173Z,5.18
2022-08-14T08:58:01.212Z,5.15
2022-08-14T08:59:30.863Z,4.40
2022-08-14T09:00:56.756Z,4.63
2022-08-14T09:02:20.787Z,4.70
2022-08-14T09:03:45.783Z,4.65
2022-08-14T09:05:11.707Z,4.82
2022-08-14T09:07:09.168Z,4.63
2022-08-14T09:08:33.042Z,4.60
2022-08-14T09:09:58.678Z,4.22
2022-08-14T09:11:24.335Z,4.47
2022-08-14T09:12:48.984Z,4.60
2022-08-14T09:14:15.253Z,4.85
2022-08-14T09:15:42.959Z,4.32
2022-08-14T09:17:06.724Z,4.80
2022-08-14T09:18:30.823Z,4.25
2022-08-14T09:19:54.885Z,4.32
2022-08-14T09:21:18.525Z,4.43
2022-08-14T09:22:42.698Z,4.70
2022-08-14T09:24:28.245Z,4.60
2022-08-14T09:26:01.304Z,4.50
2022-08-14T09:27:24.413Z,4.75
2022-08-14T09:28:48.314Z,4.63
2022-08-14T09:30:33.020Z,4.72
2022-08-14T09:31:59.355Z,4.60
2022-08-14T09:33:37.354Z,4.43
2022-08-14T09:35:29.140Z,3.95
2022-08-14T09:37:20.082Z,3.50
2022-08-14T09:38:49.002Z,3.60
2022-08-14T09:40:21.209Z,3.35
2022-08-14T09:42:20.474Z,3.92
2022-08-14T09:43:50.603Z,3.53
2022-08-14T09:45:17.060Z,4.10
2022-08-14T09:46:40.664Z,4.03
2022-08-14T09:48:17.682Z,3.90
2022-08-14T09:49:42.476Z,4.15
2022-08-14T09:52:34.052Z,3.80
2022-08-14T09:54:22.544Z,3.65
2022-08-14T09:55:58.512Z,3.95
2022-08-14T09:57:27.639Z,4.30
2022-08-14T09:58:53.250Z,3.70
2022-08-14T10:00:29.495Z,4.07
2022-08-14T10:01:56.192Z,3.85
2022-08-14T10:03:33.822Z,3.80
2022-08-14T10:05:02.196Z,3.67
2022-08-14T10:06:29.541Z,3.80
2022-08-14T10:07:53.728Z,4.03
2022-08-14T10:09:24.719Z,4.22
2022-08-14T10:10:48.877Z,4.18
2022-08-14T10:12:29.062Z,4.22
2022-08-14T10:13:55.951Z,3.80
2022-08-14T10:15:21.193Z,4.00
2022-08-14T10:16:46.320Z,4.10
2022-08-14T10:18:17.208Z,3.58
2022-08-14T10:19:50.193Z,3.80
2022-08-14T10:21:19.202Z,3.50
2022-08-14T10:23:15.472Z,4.22
2022-08-14T10:24:37.219Z,3.58
2022-08-14T10:26:07.623Z,3.40
2022-08-14T10:27:31.649Z,3.53
2022-08-14T10:29:19.500Z,3.10
2022-08-14T10:30:53.004Z,3.38
2022-08-14T10:32:17.945Z,3.28
2022-08-14T10:33:42.189Z,3.10
2022-08-14T10:35:09.301Z,3.13
2022-08-14T10:36:40.806Z,3.03
2022-08-14T10:38:07.497Z,2.85
2022-08-14T10:39:30.226Z,3.30
2022-08-14T10:40:59.367Z,3.10
2022-08-14T10:42:37.387Z,2.92
2022-08-14T10:44:09.120Z,2.63
2022-08-14T10:46:03.522Z,2.97
2022-08-14T10:48:07.227Z,3.10
2022-08-14T10:49:25.117Z,3.00
2022-08-14T10:50:51.465Z,3.25
2022-08-14T10:52:24.170Z,2.97
2022-08-14T10:53:56.705Z,2.92
2022-08-14T10:55:22.627Z,3.00
2022-08-14T10:56:45.562Z,3.20
2022-08-14T10:58:11.709Z,3.30
2022-08-14T10:59:43.404Z,3.25
2022-08-14T11:01:08.410Z,3.40
2022-08-14T11:02:36.084Z,3.13
2022-08-14T11:04:26.207Z,3.20
2022-08-14T11:05:56.018Z,3.28
2022-08-14T11:07:21.329Z,3.05
2022-08-14T11:08:45.739Z,3.67
2022-08-14T11:10:12.468Z,3.33
2022-08-14T11:11:44.723Z,3.40
2022-08-14T11:13:07.290Z,3.08
2022-08-14T11:14:31.882Z,3.33
2022-08-14T11:15:57.468Z,3.45
2022-08-14T11:17:25.760Z,3.60
2022-08-14T11:18:50.801Z,3.00
2022-08-14T11:20:16.142Z,3.65
2022-08-14T11:21:41.702Z,3.30
2022-08-14T11:23:11.475Z,3.42
2022-08-14T11:24:51.036Z,3.30
2022-08-14T11:26:20.538Z,3.30
2022-08-14T11:27:44.938Z,3.05
2022-08-14T11:29:08.844Z,3.13
2022-08-14T11:30:51.296Z,3.83
2022-08-14T11:32:14.985Z,2.90
2022-08-14T11:33:40.828Z,3.45
2022-08-14T11:35:05.957Z,4.07
2022-08-14T11:36:56.985Z,3.22
2022-08-14T11:38:14.440Z,3.20
2022-08-14T11:39:41.655Z,3.10
2022-08-14T11:41:09.386Z,3.30
2022-08-14T11:42:56.960Z,3.22
2022-08-14T11:44:45.500Z,3.25
2022-08-14T11:46:03.558Z,3.53
2022-08-14T11:47:26.675Z,3.05
2022-08-14T11:49:03.640Z,3.28
2022-08-14T11:50:36.244Z,3.78
2022-08-14T11:52:03.055Z,3.00
2022-08-14T11:53:30.306Z,2.97
2022-08-14T11:55:01.355Z,3.00
2022-08-14T11:56:29.679Z,3.58
2022-08-14T11:58:03.848Z,3.17
2022-08-14T11:59:33.538Z,2.88
2022-08-14T12:00:59.992Z,3.30
2022-08-14T12:03:00.961Z,3.38
2022-08-14T12:04:21.699Z,3.67
2022-08-14T12:06:07.041Z,3.25
2022-08-14T12:07:51.269Z,3.30
2022-08-14T12:09:15.598Z,3.53
2022-08-14T12:10:41.055Z,3.15
2022-08-14T12:12:16.270Z,3.20
2022-08-14T12:14:13.487Z,3.75
2022-08-14T12:16:00.975Z,3.45
2022-08-14T12:17:31.918Z,3.78
2022-08-14T12:19:10.809Z,3.15
2022-08-14T12:20:36.294Z,3.63
2022-08-14T12:21:59.934Z,3.72
2022-08-14T12:23:27.651Z,3.17
2022-08-14T12:24:52.257Z,3.55
2022-08-14T12:26:39.225Z,3.58
2022-08-14T12:28:05.661Z,3.22
2022-08-14T12:29:32.002Z,3.50
2022-08-14T12:30:56.735Z,3.40
2022-08-14T12:32:20.407Z,3.47
2022-08-14T12:33:47.077Z,3.53
2022-08-14T12:35:17.543Z,3.85
2022-08-14T12:36:41.119Z,3.33
2022-08-14T12:38:04.704Z,3.60
2022-08-14T12:39:28.293Z,3.38
2022-08-14T12:41:06.465Z,3.92
2022-08-14T12:42:36.402Z,3.53
2022-08-14T12:44:04.796Z,3.28
2022-08-14T12:45:34.416Z,3.55
2022-08-14T12:47:07.390Z,3.45
2022-08-14T12:48:32.584Z,3.75
2022-08-14T12:49:57.470Z,3.40
2022-08-14T12:51:30.788Z,3.42
2022-08-14T12:53:02.007Z,3.70
2022-08-14T12:54:50.546Z,3.47
2022-08-14T12:56:33.637Z,3.20
2022-08-14T12:58:02.422Z,4.50
2022-08-14T12:59:46.880Z,3.88
2022-08-14T13:01:16.831Z,3.47
2022-08-14T13:02:42.434Z,3.42
2022-08-14T13:04:13.195Z,3.72
2022-08-14T13:05:37.474Z,3.97
2022-08-14T13:07:08.443Z,3.50
2022-08-14T13:08:34.239Z,3.60
2022-08-14T13:09:58.438Z,3.35
2022-08-14T13:11:24.271Z,3.75
2022-08-14T13:13:11.998Z,4.03
2022-08-14T13:14:33.722Z,3.53
2022-08-14T13:15:57.746Z,3.10
2022-08-14T13:17:23.106Z,3.50
2022-08-14T13:18:47.703Z,3.30
2022-08-14T13:20:24.986Z,3.50
2022-08-14T13:22:05.704Z,4.03
2022-08-14T13:23:37.325Z,3.63
2022-08-14T13:25:00.556Z,3.50
2022-08-14T13:26:28.225Z,3.67
2022-08-14T13:27:55.004Z,3.25
2022-08-14T13:29:21.755Z,3.85
2022-08-14T13:30:46.984Z,3.33
2022-08-14T13:32:10.908Z,3.20
2022-08-14T13:33:38.264Z,3.13
2022-08-14T13:35:10.549Z,3.10
2022-08-14T13:36:51.534Z,3.00
2022-08-14T13:38:22.175Z,3.28
2022-08-14T13:39:56.288Z,3.10
2022-08-14T13:41:27.992Z,3.20
2022-08-14T13:42:57.452Z,3.75
2022-08-14T13:44:25.372Z,3.83
2022-08-14T13:46:00.389Z,2.70
2022-08-14T13:47:30.287Z,3.42
2022-08-14T13:48:56.395Z,3.00
2022-08-14T13:50:23.425Z,3.35
2022-08-14T13:51:50.558Z,3.13
2022-08-14T13:53:18.189Z,2.95
2022-08-14T13:54:43.623Z,3.55
2022-08-14T13:56:14.472Z,3.55
2022-08-14T13:57:49.368Z,3.17
2022-08-14T13:59:15.998Z,3.20
2022-08-14T14:00:51.894Z,3.00
2022-08-14T14:02:33.845Z,2.85
2022-08-14T14:03:59.351Z,3.50
2022-08-14T14:05:26.097Z,2.85
2022-08-14T14:07:13.019Z,2.88
2022-08-14T14:08:46.598Z,2.95
2022-08-14T14:10:12.421Z,2.63
2022-08-14T14:11:36.744Z,2.95
2022-08-14T14:13:19.801Z,2.65
2022-08-14T14:14:51.579Z,2.65
2022-08-14T14:16:26.122Z,2.70
2022-08-14T14:17:56.437Z,2.50
2022-08-14T14:19:23.499Z,2.70
2022-08-14T14:20:47.185Z,2.70
2022-08-14T14:22:10.749Z,2.80
2022-08-14T14:23:56.988Z,3.05
2022-08-14T14:25:22.534Z,2.83
2022-08-14T14:26:46.919Z,3.03
2022-08-14T14:28:11.245Z,2.83
2022-08-14T14:29:47.422Z,3.03
2022-08-14T14:31:13.266Z,3.20
2022-08-14T14:33:01.926Z,2.85
2022-08-14T14:34:29.959Z,3.28
2022-08-14T14:35:54.195Z,3.20
2022-08-14T14:37:16.911Z,2.85
2022-08-14T14:38:44.290Z,2.78
2022-08-14T14:40:54.822Z,2.28
2022-08-14T14:41:56.163Z,2.72
2022-08-14T14:43:20.043Z,2.70
2022-08-14T14:44:53.098Z,3.22
2022-08-14T14:46:22.124Z,2.80
2022-08-14T14:48:00.434Z,2.80
2022-08-14T14:49:41.635Z,3.17
2022-08-14T14:51:10.550Z,2.40
2022-08-14T14:52:37.059Z,2.70
2022-08-14T14:54:03.246Z,2.95
2022-08-14T14:55:28.978Z,3.17
2022-08-14T14:57:13.998Z,2.70
2022-08-14T14:58:42.663Z,2.90
2022-08-14T15:00:13.328Z,2.50
2022-08-14T15:01:48.843Z,2.65
2022-08-14T15:03:12.453Z,2.42
2022-08-14T15:04:43.740Z,2.83
2022-08-14T15:06:08.347Z,2.50
2022-08-14T15:07:33.077Z,2.40
2022-08-14T15:08:59.650Z,2.35
2022-08-14T15:10:27.379Z,2.30
2022-08-14T15:11:53.375Z,2.22
2022-08-14T15:13:17.095Z,2.30
2022-08-14T15:14:57.042Z,2.38
2022-08-14T15:16:22.569Z,2.25
2022-08-14T15:17:48.484Z,2.40
2022-08-14T15:19:18.460Z,2.40
2022-08-14T15:20:43.434Z,2.53
2022-08-14T15:22:10.906Z,2.83
2022-08-14T15:23:44.322Z,2.33
2022-08-14T15:25:10.472Z,2.50
2022-08-14T15:26:35.530Z,2.80
2022-08-14T15:27:59.719Z,2.50
2022-08-14T15:29:23.010Z,2.22
2022-08-14T15:30:51.081Z,2.53
2022-08-14T15:32:23.391Z,2.20
2022-08-14T15:34:43.216Z,2.28
2022-08-14T15:35:49.864Z,2.40
2022-08-14T15:37:16.556Z,2.65
2022-08-14T15:38:42.580Z,2.20
2022-08-14T15:40:10.116Z,2.70
2022-08-14T15:41:45.773Z,2.30
2022-08-14T15:43:10.800Z,2.33
2022-08-14T15:44:36.712Z,1.98
2022-08-14T15:46:09.552Z,2.50
2022-08-14T15:47:53.039Z,2.28
2022-08-14T15:49:16.867Z,2.40
2022-08-14T15:50:44.677Z,2.30
2022-08-14T15:52:14.344Z,2.20
2022-08-14T15:53:55.836Z,2.38
2022-08-14T15:55:23.130Z,2.28
2022-08-14T15:56:45.733Z,1.83
2022-08-14T15:58:14.309Z,2.25
2022-08-14T15:59:56.714Z,2.65
2022-08-14T16:01:50.836Z,2.50
2022-08-14T16:03:08.803Z,2.30
2022-08-14T16:04:33.243Z,2.05
2022-08-14T16:05:56.540Z,2.28
2022-08-14T16:07:22.192Z,2.97
2022-08-14T16:08:58.667Z,2.70
2022-08-14T16:10:30.083Z,3.10
2022-08-14T16:11:54.259Z,2.40
2022-08-14T16:13:39.641Z,2.75
2022-08-14T16:15:01.870Z,2.78
2022-08-14T16:16:47.186Z,2.67
2022-08-14T16:18:17.401Z,2.53
2022-08-14T16:19:45.788Z,2.45
2022-08-14T16:21:10.771Z,2.60
2022-08-14T16:22:58.954Z,2.38
2022-08-14T16:24:28.007Z,2.75
2022-08-14T16:25:52.744Z,2.90
2022-08-14T16:27:18.723Z,2.55
2022-08-14T16:29:02.707Z,2.97
2022-08-14T16:30:34.277Z,2.50
2022-08-14T16:32:01.710Z,2.60
2022-08-14T16:33:59.055Z,2.47
2022-08-14T16:35:25.104Z,2.40
2022-08-14T16:36:54.048Z,2.45
2022-08-14T16:40:03.226Z,2.60
2022-08-14T16:41:27.295Z,2.67
2022-08-14T16:43:04.294Z,2.45
2022-08-14T16:44:39.106Z,2.83
2022-08-14T16:46:03.722Z,2.53
2022-08-14T16:47:32.186Z,2.80
2022-08-14T16:49:00.798Z,2.40
2022-08-14T16:50:40.417Z,2.55
2022-08-14T16:52:25.434Z,2.45
2022-08-14T16:53:54.627Z,2.75
2022-08-14T16:55:19.251Z,2.17
2022-08-14T16:56:44.089Z,3.13
2022-08-14T16:58:08.378Z,2.60
2022-08-14T16:59:52.515Z,3.22
2022-08-14T17:01:24.514Z,3.13
2022-08-14T17:02:50.341Z,3.65
2022-08-14T17:04:25.058Z,2.70
2022-08-14T17:05:51.906Z,2.50
2022-08-14T17:07:16.233Z,2.85
2022-08-14T17:08:46.159Z,2.90
2022-08-14T17:10:12.514Z,3.28
2022-08-14T17:11:37.578Z,2.67
2022-08-14T17:13:19.029Z,3.13
2022-08-14T17:15:10.034Z,3.40
2022-08-14T17:16:38.127Z,2.95
2022-08-14T17:18:01.978Z,3.08
2022-08-14T17:19:28.313Z,3.08
2022-08-14T17:21:02.881Z,2.85
2022-08-14T17:22:47.338Z,3.30
2022-08-14T17:24:58.470Z,3.42
2022-08-14T17:25:58.304Z,3.55
2022-08-14T17:27:23.828Z,2.80
2022-08-14T17:28:51.631Z,3.50
2022-08-14T17:30:32.567Z,3.25
2022-08-14T17:32:03.806Z,3.47
2022-08-14T17:33:32.736Z,3.50
2022-08-14T17:35:02.487Z,4.00
2022-08-14T17:36:25.140Z,3.60
2022-08-14T17:37:55.864Z,3.90
2022-08-14T17:39:21.655Z,3.53
2022-08-14T17:41:06.223Z,4.05
2022-08-14T17:43:00.867Z,4.28
2022-08-14T17:44:33.834Z,3.95
2022-08-14T17:46:06.348Z,3.65
2022-08-14T17:47:33.970Z,3.95
2022-08-14T17:49:14.472Z,4.90
2022-08-14T17:50:59.400Z,4.05
2022-08-14T17:52:34.368Z,3.90
2022-08-14T17:54:01.355Z,3.70
2022-08-14T17:56:00.956Z,4.20
2022-08-14T17:57:13.962Z,4.03
2022-08-14T17:58:42.062Z,4.13
2022-08-14T18:00:06.514Z,3.83
2022-08-14T18:01:30.197Z,3.40
2022-08-14T18:02:54.060Z,3.75
2022-08-14T18:04:24.860Z,3.92
2022-08-14T18:06:08.957Z,4.30
2022-08-14T18:07:59.900Z,3.45
2022-08-14T18:09:26.070Z,4.43
2022-08-14T18:10:55.151Z,4.38
2022-08-14T18:12:32.005Z,4.25
2022-08-14T18:13:59.606Z,4.30
2022-08-14T18:15:22.338Z,4.22
2022-08-14T18:17:00.889Z,4.22
2022-08-14T18:18:24.739Z,4.30
2022-08-14T18:19:54.521Z,4.07
2022-08-14T18:21:40.013Z,4.45
2022-08-14T18:23:02.198Z,4.63
2022-08-14T18:24:31.794Z,4.10
2022-08-14T18:25:55.663Z,4.30
2022-08-14T18:27:23.482Z,4.47
2022-08-14T18:28:52.171Z,4.65
2022-08-14T18:30:31.835Z,4.18
2022-08-14T18:32:04.237Z,4.38
2022-08-14T18:33:28.103Z,4.20
2022-08-14T18:35:01.156Z,4.78
2022-08-14T18:36:51.992Z,4.63
2022-08-14T18:38:41.007Z,4.65
2022-08-14T18:40:34.505Z,4.70
2022-08-14T18:42:35.253Z,4.47
2022-08-14T18:44:00.111Z,4.78
2022-08-14T18:45:29.073Z,4.20
2022-08-14T18:47:20.701Z,4.00
2022-08-14T18:48:50.897Z,3.97
2022-08-14T18:50:27.460Z,4.05
2022-08-14T18:52:18.703Z,3.60
2022-08-14T18:53:58.042Z,3.75
2022-08-14T18:55:53.301Z,4.15
2022-08-14T18:57:21.834Z,3.78
2022-08-14T18:58:56.999Z,3.80
2022-08-14T19:00:50.931Z,3.78
2022-08-14T19:02:43.370Z,3.65
2022-08-14T19:04:08.485Z,3.88
2022-08-14T19:05:59.046Z,3.90
2022-08-14T19:07:23.978Z,3.70
2022-08-14T19:11:06.461Z,3.70
2022-08-14T19:13:00.467Z,3.78
2022-08-14T19:14:45.495Z,3.60
2022-08-14T19:16:14.027Z,4.13
2022-08-14T19:18:14.019Z,3.95
2022-08-14T19:19:39.574Z,4.10
2022-08-14T19:21:13.160Z,3.72
2022-08-14T19:22:39.190Z,3.63
2022-08-14T19:24:29.638Z,3.63
2022-08-14T19:25:56.957Z,4.00
2022-08-14T19:27:24.210Z,4.25
2022-08-14T19:28:50.019Z,4.22
2022-08-14T19:30:24.128Z,4.32
2022-08-14T19:31:55.558Z,3.85
2022-08-14T19:33:51.957Z,4.20
2022-08-14T19:35:55.178Z,3.78
2022-08-14T19:37:47.468Z,3.67
2022-08-14T19:39:11.791Z,4.28
2022-08-14T19:40:39.262Z,4.10
2022-08-14T19:42:10.235Z,4.75
2022-08-14T19:43:55.755Z,3.90
2022-08-14T19:45:19.403Z,4.07
2022-08-14T19:47:01.847Z,3.65
2022-08-14T19:48:28.133Z,4.03
2022-08-14T19:50:24.480Z,3.92
2022-08-14T19:51:43.484Z,4.15
2022-08-14T19:53:11.040Z,4.40
2022-08-14T19:54:37.221Z,4.30
2022-08-14T19:56:02.034Z,4.50
2022-08-14T19:57:29.256Z,4.57
2022-08-14T19:58:54.667Z,4.05
2022-08-14T20:00:29.158Z,4.53
2022-08-14T20:01:55.626Z,4.90
2022-08-14T20:03:24.012Z,4.22
2022-08-14T20:04:59.125Z,4.55
2022-08-14T20:06:24.523Z,4.50
2022-08-14T20:07:59.136Z,4.32
2022-08-14T20:11:06.881Z,4.35
2022-08-14T20:12:00.876Z,4.50
2022-08-14T20:13:09.498Z,4.68
2022-08-14T20:14:38.080Z,4.25
2022-08-14T20:16:21.345Z,5.15